Strona główna
METAR-TAF:

METAR-TAF

Lotnisko :

Port lotniczy Poznań-Ławica

Poznań, Polska

Szerokość geograficzna: 52-25N, Długość geograficzna: 016-50E, wysokość: 86 m

Aktualna obserwacja pogody

Raport powstał 32 minut temu, godzina 07:00 UTC
Wiatr 3 kt od północny zachód
Temperatura 17°C
Wilgotność 82%
Ciśnienie 1019 hPa
Widzialność 10 km lub więcej
Przerywane chmury na wysokości 4300 ft

METAR: EPPO 180700Z 32003KT 9999 BKN043 17/14 Q1019

czas: 09:32 (07:32 UTC)

Prognoza

Raport powstał 2 godziny i 2 minut temu, godzina 05:30 UTC
Prognoza ważna od 18 godzina 06 UTC do 19 godzina 06 UTC
Wiatr 8 kt od północny zachód
Widzialność 10 km lub więcej
Brak chmur poniżej 1500 m i brak chmur cumulonimbus
Prawdopodobieństwo 40% :
Przejściowo
od 18 godzina 10 UTC do 18 godzina 16 UTC
Wiatr 15 kt od północny zachód w porywach dochodzący do 25 kt
Przerywane chmury na wysokości 5000 ft, Cumulonimbus.

TAF: EPPO 180530Z 1806/1906 32008KT CAVOK PROB40 TEMPO 1810/1816 32015G25KT BKN050CB

Obserwacja i prognoza pogody dla ponad 4000 lotnisk (raport METAR i TAF).

Dostępne stacje oznaczono żółtymi i czerwonymi punktami na mapie.

Najedź kursorem aby zobaczyć nazwę stacji.

Kliknij aby zobaczyć obserwacje i prognozy pogody.

Aby zmienić mapę: kliknij na zielony przycisk z czarnym krzyżykiem, aby powiększyć; na zielony przycisk z myślnikiem, aby pomniejszyć; na zielone strzałki, aby przejść do map sąsiednich.


METAR-TAF: